createdAt,value
2023-02-09T00:01:21.295Z,40.85
2023-02-09T00:03:48.865Z,39.83
2023-02-09T00:06:18.304Z,41.25
2023-02-09T00:08:45.586Z,41.66
2023-02-09T00:11:21.741Z,41.05
2023-02-09T00:13:48.581Z,40.17
2023-02-09T00:16:16.395Z,40.67
2023-02-09T00:18:43.138Z,40.51
2023-02-09T00:21:11.284Z,40.51
2023-02-09T00:23:41.053Z,40.63
2023-02-09T00:26:10.695Z,42.92
2023-02-09T00:28:39.108Z,42.28
2023-02-09T00:31:11.320Z,42.31
2023-02-09T00:33:40.723Z,42.10
2023-02-09T00:36:10.818Z,40.96
2023-02-09T00:38:37.713Z,40.67
2023-02-09T00:41:05.263Z,40.51
2023-02-09T00:43:32.270Z,40.33
2023-02-09T00:45:59.824Z,40.67
2023-02-09T00:48:27.161Z,40.83
2023-02-09T00:50:54.206Z,40.29
2023-02-09T00:53:21.818Z,40.06
2023-02-09T00:55:49.437Z,40.36
2023-02-09T00:58:16.317Z,40.30
2023-02-09T01:00:43.572Z,40.49
2023-02-09T01:03:11.361Z,40.27
2023-02-09T01:05:42.937Z,40.40
2023-02-09T01:08:11.760Z,40.47
2023-02-09T01:10:39.680Z,40.66
2023-02-09T01:13:06.534Z,40.04
2023-02-09T01:15:33.378Z,39.90
2023-02-09T01:18:00.363Z,40.09
2023-02-09T01:20:27.725Z,39.19
2023-02-09T01:22:54.617Z,39.42
2023-02-09T01:25:21.488Z,39.04
2023-02-09T01:27:48.748Z,38.94
2023-02-09T01:30:15.707Z,38.80
2023-02-09T01:32:45.960Z,38.82
2023-02-09T01:35:12.848Z,39.49
2023-02-09T01:37:39.866Z,39.75
2023-02-09T01:40:08.136Z,39.59
2023-02-09T01:42:39.050Z,39.16
2023-02-09T01:45:31.948Z,38.89
2023-02-09T01:48:14.081Z,39.50
2023-02-09T01:50:45.844Z,39.25
2023-02-09T01:53:13.253Z,39.55
2023-02-09T01:55:46.661Z,39.32
2023-02-09T01:58:17.843Z,39.73
2023-02-09T02:00:46.312Z,39.39
2023-02-09T02:03:18.637Z,39.33
2023-02-09T02:05:49.002Z,39.54
2023-02-09T02:08:26.556Z,39.80
2023-02-09T02:10:54.399Z,40.06
2023-02-09T02:13:21.393Z,39.67
2023-02-09T02:16:11.101Z,39.46
2023-02-09T02:18:53.230Z,39.87
2023-02-09T02:21:37.678Z,39.80
2023-02-09T02:24:28.261Z,40.57
2023-02-09T02:26:58.745Z,39.97
2023-02-09T02:29:35.533Z,40.69
2023-02-09T02:32:24.343Z,40.71
2023-02-09T02:34:55.911Z,40.78
2023-02-09T02:37:37.374Z,40.58
2023-02-09T02:40:12.409Z,40.76
2023-02-09T02:43:23.582Z,41.29
2023-02-09T02:46:05.405Z,40.80
2023-02-09T02:48:41.349Z,41.09
2023-02-09T02:51:36.578Z,40.75
2023-02-09T02:54:09.497Z,40.81
2023-02-09T02:56:41.725Z,40.61
2023-02-09T02:59:14.210Z,40.59
2023-02-09T03:01:46.362Z,40.39
2023-02-09T03:04:15.437Z,40.95
2023-02-09T03:06:42.165Z,40.73
2023-02-09T03:09:09.151Z,40.99
2023-02-09T03:11:49.330Z,41.16
2023-02-09T03:14:35.276Z,40.85
2023-02-09T03:17:30.918Z,40.64
2023-02-09T03:20:13.231Z,40.65
2023-02-09T03:22:48.170Z,40.88
2023-02-09T03:25:34.972Z,40.74
2023-02-09T03:28:14.310Z,40.74
2023-02-09T03:30:42.536Z,40.61
2023-02-09T03:33:24.467Z,40.60
2023-02-09T03:35:55.612Z,40.37
2023-02-09T03:38:23.068Z,41.06
2023-02-09T03:40:50.053Z,40.56
2023-02-09T03:43:16.869Z,40.52
2023-02-09T03:45:43.632Z,41.00
2023-02-09T03:48:11.329Z,40.59
2023-02-09T03:50:38.565Z,40.33
2023-02-09T03:53:06.568Z,40.21
2023-02-09T03:55:34.343Z,40.11
2023-02-09T03:58:01.077Z,40.25
2023-02-09T04:00:28.306Z,40.31
2023-02-09T04:02:55.077Z,40.39
2023-02-09T04:05:23.046Z,40.37
2023-02-09T04:07:49.972Z,40.39
2023-02-09T04:10:16.806Z,40.59
2023-02-09T04:12:43.537Z,41.04
2023-02-09T04:15:11.405Z,40.76
2023-02-09T04:17:38.258Z,40.75
2023-02-09T04:20:05.632Z,40.67
2023-02-09T04:22:32.357Z,40.40
2023-02-09T04:24:59.009Z,40.61
2023-02-09T04:27:27.196Z,40.63
2023-02-09T04:29:54.094Z,40.69
2023-02-09T04:32:20.939Z,40.64
2023-02-09T04:34:47.644Z,40.17
2023-02-09T04:37:14.463Z,39.79
2023-02-09T04:39:41.278Z,40.00
2023-02-09T04:42:08.190Z,40.44
2023-02-09T04:44:34.918Z,40.33
2023-02-09T04:47:01.720Z,40.37
2023-02-09T04:49:28.441Z,40.74
2023-02-09T04:51:55.286Z,40.96
2023-02-09T04:54:22.015Z,41.12
2023-02-09T04:57:08.898Z,40.92
2023-02-09T04:59:39.233Z,40.63
2023-02-09T05:02:06.043Z,40.71
2023-02-09T05:04:32.891Z,40.07
2023-02-09T05:06:59.810Z,41.25
2023-02-09T05:09:27.650Z,40.66
2023-02-09T05:11:54.491Z,40.48
2023-02-09T05:14:21.328Z,41.08
2023-02-09T05:16:48.284Z,40.94
2023-02-09T05:19:15.053Z,40.85
2023-02-09T05:21:41.699Z,40.73
2023-02-09T05:24:08.496Z,40.68
2023-02-09T05:26:35.548Z,41.10
2023-02-09T05:29:02.729Z,40.62
2023-02-09T05:31:29.631Z,40.40
2023-02-09T05:33:56.437Z,40.47
2023-02-09T05:36:25.256Z,40.23
2023-02-09T05:38:51.998Z,40.76
2023-02-09T05:41:37.193Z,40.21
2023-02-09T05:44:04.394Z,40.28
2023-02-09T05:46:31.580Z,40.27
2023-02-09T05:48:58.491Z,40.54
2023-02-09T05:51:26.315Z,40.39
2023-02-09T05:53:54.316Z,40.27
2023-02-09T05:56:22.647Z,40.33
2023-02-09T05:59:08.122Z,40.15
2023-02-09T06:01:34.901Z,43.65
2023-02-09T06:04:01.744Z,41.42
2023-02-09T06:06:28.868Z,41.25
2023-02-09T06:08:55.787Z,41.26
2023-02-09T06:11:22.618Z,40.91
2023-02-09T06:13:49.701Z,40.84
2023-02-09T06:16:16.476Z,40.36
2023-02-09T06:18:43.285Z,40.26
2023-02-09T06:21:11.684Z,40.39
2023-02-09T06:23:39.384Z,40.23
2023-02-09T06:26:13.473Z,39.75
2023-02-09T06:28:40.553Z,39.89
2023-02-09T06:31:07.974Z,39.91
2023-02-09T06:33:36.415Z,39.31
2023-02-09T06:36:04.527Z,39.29
2023-02-09T06:38:32.718Z,39.11
2023-02-09T06:40:59.413Z,39.08
2023-02-09T06:43:26.614Z,38.65
2023-02-09T06:45:53.749Z,38.68
2023-02-09T06:48:20.784Z,38.80
2023-02-09T06:50:48.196Z,38.04
2023-02-09T06:53:17.226Z,38.02
2023-02-09T06:55:44.036Z,37.57
2023-02-09T06:58:10.792Z,37.23
2023-02-09T07:00:37.513Z,37.20
2023-02-09T07:03:04.487Z,36.80
2023-02-09T07:05:31.653Z,36.95
2023-02-09T07:07:58.526Z,37.68
2023-02-09T07:10:25.308Z,37.22
2023-02-09T07:12:52.255Z,37.23
2023-02-09T07:15:19.203Z,37.94
2023-02-09T07:17:46.089Z,37.61
2023-02-09T07:20:13.139Z,37.98
2023-02-09T07:22:40.960Z,37.50
2023-02-09T07:25:08.201Z,37.19
2023-02-09T07:27:35.067Z,37.82
2023-02-09T07:30:02.056Z,37.83
2023-02-09T07:32:28.771Z,37.64
2023-02-09T07:34:55.483Z,37.23
2023-02-09T07:37:22.247Z,36.78
2023-02-09T07:39:49.396Z,37.16
2023-02-09T07:42:16.297Z,36.35
2023-02-09T07:44:57.803Z,37.04
2023-02-09T07:47:24.719Z,36.36
2023-02-09T07:49:51.458Z,36.17
2023-02-09T07:52:18.306Z,36.23
2023-02-09T07:54:45.030Z,35.68
2023-02-09T07:57:13.470Z,36.12
2023-02-09T07:59:40.251Z,35.16
2023-02-09T08:02:16.976Z,35.40
2023-02-09T08:04:44.753Z,35.26
2023-02-09T08:07:11.511Z,35.19
2023-02-09T08:09:38.374Z,35.27
2023-02-09T08:12:06.076Z,35.05
2023-02-09T08:14:42.943Z,34.13
2023-02-09T08:17:23.249Z,33.33
2023-02-09T08:20:03.286Z,35.15
2023-02-09T08:22:33.783Z,35.35
2023-02-09T08:25:03.072Z,34.31
2023-02-09T08:27:31.273Z,33.92
2023-02-09T08:29:58.841Z,33.04
2023-02-09T08:32:25.728Z,33.08
2023-02-09T08:34:52.560Z,31.94
2023-02-09T08:37:19.450Z,32.42
2023-02-09T08:39:46.185Z,32.09
2023-02-09T08:42:13.082Z,31.68
2023-02-09T08:44:39.853Z,32.10
2023-02-09T08:47:06.678Z,31.75
2023-02-09T08:49:33.386Z,31.68
2023-02-09T08:52:00.157Z,31.68
2023-02-09T08:54:27.130Z,31.64
2023-02-09T08:56:53.856Z,31.16
2023-02-09T08:59:22.014Z,31.75
2023-02-09T09:01:48.694Z,31.34
2023-02-09T09:04:15.512Z,30.54
2023-02-09T09:06:42.244Z,30.68
2023-02-09T09:09:09.218Z,30.90
2023-02-09T09:11:36.734Z,30.58
2023-02-09T09:14:03.464Z,30.40
2023-02-09T09:16:30.616Z,30.26
2023-02-09T09:18:57.448Z,29.89
2023-02-09T09:21:24.557Z,29.64
2023-02-09T09:23:51.300Z,29.53
2023-02-09T09:26:18.374Z,29.99
2023-02-09T09:28:45.558Z,30.89
2023-02-09T09:31:16.485Z,30.64
2023-02-09T09:33:44.550Z,30.15
2023-02-09T09:36:12.281Z,30.40
2023-02-09T09:38:39.675Z,29.62
2023-02-09T09:41:18.914Z,28.86
2023-02-09T09:43:45.834Z,29.44
2023-02-09T09:46:19.053Z,27.94
2023-02-09T09:48:49.463Z,27.33
2023-02-09T09:51:28.953Z,27.15
2023-02-09T09:53:59.413Z,27.38
2023-02-09T09:56:29.382Z,26.89
2023-02-09T09:58:57.029Z,26.54
2023-02-09T10:01:26.289Z,27.48
2023-02-09T10:03:53.354Z,27.20
2023-02-09T10:06:22.600Z,27.48
2023-02-09T10:08:59.734Z,27.84
2023-02-09T10:11:36.633Z,27.51
2023-02-09T10:14:03.449Z,27.87
2023-02-09T10:16:34.624Z,27.86
2023-02-09T10:19:05.148Z,28.02
2023-02-09T10:21:35.907Z,27.65
2023-02-09T10:24:10.180Z,28.20
2023-02-09T10:26:40.082Z,28.53
2023-02-09T10:29:12.992Z,31.42
2023-02-09T10:31:47.077Z,28.08
2023-02-09T10:34:18.128Z,27.74
2023-02-09T10:36:50.235Z,26.88
2023-02-09T10:39:25.568Z,26.28
2023-02-09T10:41:54.570Z,27.58
2023-02-09T10:44:27.327Z,27.04
2023-02-09T10:47:23.554Z,27.04
2023-02-09T10:50:05.687Z,26.89
2023-02-09T10:52:36.749Z,27.26
2023-02-09T10:55:16.990Z,25.70
2023-02-09T10:57:43.902Z,25.92
2023-02-09T11:00:16.718Z,26.80
2023-02-09T11:02:51.716Z,25.81
2023-02-09T11:05:21.446Z,25.68
2023-02-09T11:08:10.346Z,25.95
2023-02-09T11:10:43.162Z,26.14
2023-02-09T11:13:23.101Z,26.14
2023-02-09T11:16:11.873Z,25.30
2023-02-09T11:18:41.599Z,25.75
2023-02-09T11:21:27.474Z,25.72
2023-02-09T11:24:18.824Z,26.61
2023-02-09T11:26:59.044Z,25.71
2023-02-09T11:29:32.219Z,25.08
2023-02-09T11:32:09.720Z,26.01
2023-02-09T11:34:51.831Z,26.43
2023-02-09T11:37:25.268Z,25.49
2023-02-09T11:40:27.826Z,26.45
2023-02-09T11:43:06.709Z,25.92
2023-02-09T11:45:39.747Z,25.69
2023-02-09T11:48:30.407Z,24.87
2023-02-09T11:51:20.102Z,24.87
2023-02-09T11:54:14.958Z,25.39
2023-02-09T11:56:47.439Z,25.50
2023-02-09T11:59:14.336Z,25.37
2023-02-09T12:01:56.461Z,25.32
2023-02-09T12:04:34.525Z,24.33
2023-02-09T12:07:35.597Z,24.61
2023-02-09T12:10:24.133Z,24.41
2023-02-09T12:13:13.416Z,24.24
2023-02-09T12:16:18.224Z,23.17
2023-02-09T12:18:46.078Z,23.07
2023-02-09T12:21:13.582Z,23.04
2023-02-09T12:23:45.185Z,22.78
2023-02-09T12:26:12.118Z,22.63
2023-02-09T12:28:46.004Z,21.65
2023-02-09T12:31:20.226Z,21.54
2023-02-09T12:33:47.312Z,21.35
2023-02-09T12:36:14.024Z,21.32
2023-02-09T12:38:56.932Z,20.95
2023-02-09T12:41:34.682Z,19.60
2023-02-09T12:44:21.781Z,20.10
2023-02-09T12:46:55.297Z,20.18
2023-02-09T12:49:33.216Z,18.99
2023-02-09T12:52:02.807Z,19.19
2023-02-09T12:54:48.482Z,18.42
2023-02-09T12:57:15.370Z,18.12
2023-02-09T12:59:42.113Z,18.17
2023-02-09T13:02:11.674Z,18.14
2023-02-09T13:05:18.658Z,17.03
2023-02-09T13:08:02.470Z,17.30
2023-02-09T13:10:35.822Z,17.06
2023-02-09T13:13:11.502Z,17.49
2023-02-09T13:16:06.311Z,16.46
2023-02-09T13:18:33.859Z,16.65
2023-02-09T13:21:15.539Z,16.09
2023-02-09T13:23:59.130Z,16.07
2023-02-09T13:26:28.236Z,16.59
2023-02-09T13:29:21.384Z,17.10
2023-02-09T13:31:54.115Z,16.53
2023-02-09T13:34:42.729Z,15.94
2023-02-09T13:37:18.090Z,16.92
2023-02-09T13:39:45.334Z,17.41
2023-02-09T13:42:24.382Z,17.09
2023-02-09T13:44:53.936Z,17.13
2023-02-09T13:47:20.825Z,16.94
2023-02-09T13:50:01.216Z,17.50
2023-02-09T13:52:38.835Z,17.21
2023-02-09T13:55:24.505Z,17.08
2023-02-09T13:58:03.518Z,17.68
2023-02-09T14:00:37.849Z,17.42
2023-02-09T14:03:18.371Z,17.50
2023-02-09T14:06:02.803Z,17.15
2023-02-09T14:08:32.166Z,17.42
2023-02-09T14:11:08.106Z,18.03
2023-02-09T14:13:41.804Z,18.02
2023-02-09T14:16:09.964Z,17.67
2023-02-09T14:18:45.829Z,18.56
2023-02-09T14:21:15.711Z,19.44
2023-02-09T14:23:48.041Z,20.00
2023-02-09T14:26:15.192Z,19.65
2023-02-09T14:28:45.436Z,20.53
2023-02-09T14:31:24.852Z,21.95
2023-02-09T14:33:55.237Z,21.46
2023-02-09T14:36:32.426Z,22.23
2023-02-09T14:39:12.937Z,22.51
2023-02-09T14:41:40.853Z,23.19
2023-02-09T14:44:07.430Z,24.02
2023-02-09T14:46:55.118Z,23.75
2023-02-09T14:49:22.751Z,23.84
2023-02-09T14:51:56.669Z,24.20
2023-02-09T14:54:26.795Z,23.60
2023-02-09T14:56:56.442Z,23.94
2023-02-09T14:59:24.210Z,24.43
2023-02-09T15:01:54.146Z,25.26
2023-02-09T15:04:21.383Z,25.40
2023-02-09T15:06:52.889Z,25.47
2023-02-09T15:09:29.234Z,25.55
2023-02-09T15:12:05.097Z,27.02
2023-02-09T15:14:45.744Z,26.96
2023-02-09T15:17:25.685Z,26.77
2023-02-09T15:19:55.886Z,27.02
2023-02-09T15:22:23.471Z,27.38
2023-02-09T15:24:54.219Z,27.77
2023-02-09T15:27:29.468Z,27.86
2023-02-09T15:29:59.418Z,28.27
2023-02-09T15:32:28.240Z,28.07
2023-02-09T15:34:55.194Z,28.26
2023-02-09T15:37:25.845Z,28.08
2023-02-09T15:39:59.658Z,29.23
2023-02-09T15:42:45.076Z,29.24
2023-02-09T15:45:39.875Z,28.58
2023-02-09T15:48:08.451Z,28.65
2023-02-09T15:50:38.926Z,29.10
2023-02-09T15:53:09.005Z,29.08
2023-02-09T15:55:37.009Z,30.96
2023-02-09T15:58:04.971Z,29.50
2023-02-09T16:00:31.986Z,29.56
2023-02-09T16:03:01.478Z,29.50
2023-02-09T16:05:29.825Z,29.88
2023-02-09T16:07:58.706Z,29.98
2023-02-09T16:10:27.628Z,29.66
2023-02-09T16:12:54.941Z,31.11
2023-02-09T16:15:26.247Z,31.70
2023-02-09T16:17:53.062Z,30.54
2023-02-09T16:20:20.505Z,30.81
2023-02-09T16:22:49.342Z,30.53
2023-02-09T16:25:25.772Z,30.42
2023-02-09T16:27:53.982Z,30.95
2023-02-09T16:30:26.353Z,31.38
2023-02-09T16:32:53.864Z,31.55
2023-02-09T16:35:22.138Z,31.45
2023-02-09T16:37:51.036Z,31.61
2023-02-09T16:40:31.474Z,31.86
2023-02-09T16:43:01.049Z,31.54
2023-02-09T16:45:30.517Z,31.58
2023-02-09T16:47:59.379Z,31.29
2023-02-09T16:50:32.931Z,31.66
2023-02-09T16:53:02.683Z,32.35
2023-02-09T16:55:34.907Z,31.75
2023-02-09T16:58:04.365Z,31.98
2023-02-09T17:00:35.717Z,32.54
2023-02-09T17:03:16.413Z,31.81
2023-02-09T17:05:49.113Z,32.55
2023-02-09T17:08:21.090Z,32.44
2023-02-09T17:10:50.295Z,32.34
2023-02-09T17:13:23.332Z,32.57
2023-02-09T17:15:53.838Z,32.44
2023-02-09T17:18:23.902Z,32.90
2023-02-09T17:20:55.245Z,32.89
2023-02-09T17:23:24.190Z,32.68
2023-02-09T17:25:54.875Z,33.01
2023-02-09T17:28:24.439Z,33.08
2023-02-09T17:30:59.789Z,33.41
2023-02-09T17:33:29.989Z,33.10
2023-02-09T17:36:24.229Z,33.22
2023-02-09T17:38:46.961Z,33.15
2023-02-09T17:41:34.012Z,32.62
2023-02-09T17:44:39.171Z,33.16
2023-02-09T17:47:16.706Z,33.11
2023-02-09T17:49:44.178Z,33.17
2023-02-09T17:52:18.820Z,34.40
2023-02-09T17:54:46.496Z,33.89
2023-02-09T17:57:17.455Z,34.11
2023-02-09T17:59:44.355Z,33.45
2023-02-09T18:02:17.101Z,33.60
2023-02-09T18:04:44.296Z,33.41
2023-02-09T18:07:12.723Z,33.34
2023-02-09T18:09:39.483Z,33.56
2023-02-09T18:12:24.762Z,33.68
2023-02-09T18:14:52.077Z,33.86
2023-02-09T18:17:19.551Z,33.64
2023-02-09T18:19:46.387Z,34.14
2023-02-09T18:22:17.221Z,33.93
2023-02-09T18:24:44.350Z,34.22
2023-02-09T18:27:15.062Z,34.48
2023-02-09T18:29:41.789Z,34.47
2023-02-09T18:32:14.598Z,34.42
2023-02-09T18:34:41.584Z,35.69
2023-02-09T18:37:08.590Z,34.47
2023-02-09T18:39:38.670Z,34.54
2023-02-09T18:42:07.266Z,36.71
2023-02-09T18:44:34.464Z,34.79
2023-02-09T18:47:02.025Z,36.34
2023-02-09T18:49:29.191Z,34.70
2023-02-09T18:51:57.093Z,34.89
2023-02-09T18:54:24.013Z,34.78
2023-02-09T18:56:52.772Z,34.76
2023-02-09T18:59:19.852Z,34.80
2023-02-09T19:01:46.945Z,34.86
2023-02-09T19:04:14.485Z,34.66
2023-02-09T19:06:41.334Z,35.61
2023-02-09T19:09:08.442Z,34.78
2023-02-09T19:11:35.156Z,35.37
2023-02-09T19:14:20.909Z,35.21
2023-02-09T19:16:48.124Z,35.28
2023-02-09T19:19:16.400Z,35.03
2023-02-09T19:21:43.401Z,34.94
2023-02-09T19:24:10.192Z,34.60
2023-02-09T19:26:37.011Z,34.52
2023-02-09T19:29:04.091Z,34.63
2023-02-09T19:31:31.017Z,34.67
2023-02-09T19:33:58.094Z,34.71
2023-02-09T19:36:28.159Z,34.54
2023-02-09T19:38:56.341Z,34.74
2023-02-09T19:41:25.709Z,34.99
2023-02-09T19:43:57.422Z,34.41
2023-02-09T19:46:25.204Z,34.40
2023-02-09T19:48:53.940Z,34.21
2023-02-09T19:51:21.368Z,34.25
2023-02-09T19:53:48.804Z,34.93
2023-02-09T19:56:17.425Z,34.84
2023-02-09T19:58:45.079Z,34.99
2023-02-09T20:01:12.885Z,36.15
2023-02-09T20:03:40.036Z,34.94
2023-02-09T20:06:12.944Z,35.14
2023-02-09T20:08:40.643Z,34.54
2023-02-09T20:11:09.590Z,34.97
2023-02-09T20:13:36.788Z,34.72
2023-02-09T20:16:09.426Z,34.78
2023-02-09T20:18:41.097Z,34.55
2023-02-09T20:21:08.776Z,34.73
2023-02-09T20:23:37.113Z,34.84
2023-02-09T20:26:22.970Z,34.63
2023-02-09T20:28:50.493Z,35.64
2023-02-09T20:31:22.066Z,34.79
2023-02-09T20:33:49.305Z,34.94
2023-02-09T20:36:16.988Z,34.78
2023-02-09T20:38:43.807Z,34.86
2023-02-09T20:41:16.470Z,35.07
2023-02-09T20:44:02.306Z,35.20
2023-02-09T20:46:51.427Z,35.59
2023-02-09T20:49:19.345Z,35.50
2023-02-09T20:51:46.317Z,35.37
2023-02-09T20:54:15.658Z,35.08
2023-02-09T20:56:43.126Z,35.14
2023-02-09T20:59:12.198Z,35.34
2023-02-09T21:01:39.635Z,35.38
2023-02-09T21:04:07.467Z,35.06
2023-02-09T21:06:37.098Z,35.26
2023-02-09T21:09:06.447Z,35.23
2023-02-09T21:11:33.876Z,35.34
2023-02-09T21:14:01.642Z,35.47
2023-02-09T21:16:29.067Z,35.49
2023-02-09T21:18:55.861Z,35.56
2023-02-09T21:21:23.129Z,34.95
2023-02-09T21:23:49.970Z,35.43
2023-02-09T21:26:19.651Z,35.10
2023-02-09T21:28:48.629Z,35.45
2023-02-09T21:31:22.113Z,35.51
2023-02-09T21:33:49.068Z,35.77
2023-02-09T21:36:15.890Z,35.46
2023-02-09T21:38:42.708Z,35.23
2023-02-09T21:41:36.057Z,35.36
2023-02-09T21:44:03.157Z,35.37
2023-02-09T21:46:30.154Z,35.16
2023-02-09T21:48:57.011Z,35.53
2023-02-09T21:51:24.284Z,35.23
2023-02-09T21:53:51.418Z,35.41
2023-02-09T21:56:18.493Z,35.68
2023-02-09T21:58:45.387Z,35.60
2023-02-09T22:01:12.229Z,35.16
2023-02-09T22:03:40.431Z,35.61
2023-02-09T22:06:07.357Z,35.10
2023-02-09T22:08:34.324Z,35.40
2023-02-09T22:11:02.946Z,34.97
2023-02-09T22:13:30.907Z,35.21
2023-02-09T22:15:57.974Z,35.07
2023-02-09T22:18:24.995Z,34.96
2023-02-09T22:20:52.032Z,35.00
2023-02-09T22:23:19.922Z,35.08
2023-02-09T22:25:46.746Z,35.12
2023-02-09T22:28:13.981Z,34.95
2023-02-09T22:30:41.092Z,34.60
2023-02-09T22:33:08.017Z,34.85
2023-02-09T22:35:34.795Z,35.02
2023-02-09T22:38:01.528Z,34.88
2023-02-09T22:40:28.521Z,34.69
2023-02-09T22:42:55.338Z,34.52
2023-02-09T22:45:22.138Z,35.07
2023-02-09T22:47:48.893Z,35.18
2023-02-09T22:50:15.900Z,34.92
2023-02-09T22:52:42.648Z,34.94
2023-02-09T22:55:09.582Z,34.42
2023-02-09T22:57:36.331Z,34.52
2023-02-09T23:00:07.577Z,33.98
2023-02-09T23:02:34.352Z,34.65
2023-02-09T23:05:01.083Z,34.89
2023-02-09T23:07:28.204Z,34.39
2023-02-09T23:09:54.878Z,34.67
2023-02-09T23:12:21.747Z,35.02
2023-02-09T23:14:48.617Z,35.00
2023-02-09T23:17:15.337Z,34.67
2023-02-09T23:19:42.050Z,35.04
2023-02-09T23:22:08.868Z,35.23
2023-02-09T23:24:35.718Z,35.53
2023-02-09T23:27:02.381Z,35.60
2023-02-09T23:29:30.787Z,35.11
2023-02-09T23:31:58.715Z,34.97
2023-02-09T23:34:25.715Z,35.29
2023-02-09T23:36:52.681Z,35.84
2023-02-09T23:39:22.362Z,35.74
2023-02-09T23:41:49.162Z,36.02
2023-02-09T23:44:16.095Z,35.70
2023-02-09T23:46:43.013Z,35.85
2023-02-09T23:49:11.548Z,36.08
2023-02-09T23:51:38.315Z,35.43
2023-02-09T23:54:06.638Z,35.69
2023-02-09T23:56:37.236Z,36.00
2023-02-09T23:59:06.896Z,35.88
